DLH42A EDDM-EDDH
Flight info
| Callsign | DLH42A |
|---|---|
| Flight time | 1h 9m |
| Altitude | 36000 |
| Route | INPUD3Q INPUD Y102 UPALA M726 NARUS DCT ABGUS DCT DIRBO/N0407F230 T902 RARUP RARUP6A |
| Aircraft | A319/M-SDE3FGHIRWY/LB1 |
Departure
| Time | 2026-04-30 18:23 |
|---|---|
| Airport | Munich Airport (EDDM) |
Arrival
| Time | 2026-04-30 19:32 |
|---|---|
| Airport | Hamburg Helmut Schmidt Airport (EDDH) |
| Time | Latitude | Longitude | Altitude | Speed | Heading |
|---|---|---|---|---|---|
| 2026-04-30 17:55 | 48.35534 | 11.79748 | 1463 ft | 0 kts | 84° |
| 2026-04-30 18:06 | 48.35534 | 11.79747 | 1463 ft | 0 kts | 84° |
| 2026-04-30 18:07 | 48.35533 | 11.79741 | 1463 ft | 2 kts | 84° |
| 2026-04-30 18:08 | 48.35529 | 11.79674 | 1463 ft | 2 kts | 84° |
| 2026-04-30 18:09 | 48.35513 | 11.79598 | 1464 ft | 2 kts | 39° |
| 2026-04-30 18:10 | 48.35478 | 11.79584 | 1464 ft | 0 kts | 353° |
| 2026-04-30 18:15 | 48.35656 | 11.79552 | 1465 ft | 17 kts | 353° |
| 2026-04-30 18:15 | 48.35909 | 11.79405 | 1466 ft | 4 kts | 311° |
| 2026-04-30 18:16 | 48.35937 | 11.79361 | 1466 ft | 2 kts | 323° |
| 2026-04-30 18:16 | 48.36010 | 11.79333 | 1465 ft | 9 kts | 358° |
| 2026-04-30 18:17 | 48.36032 | 11.79330 | 1464 ft | 0 kts | 354° |
| 2026-04-30 18:17 | 48.36093 | 11.79242 | 1464 ft | 12 kts | 263° |
| 2026-04-30 18:18 | 48.36077 | 11.79082 | 1464 ft | 18 kts | 263° |
| 2026-04-30 18:18 | 48.36061 | 11.78867 | 1464 ft | 22 kts | 262° |
| 2026-04-30 18:18 | 48.36041 | 11.78616 | 1467 ft | 25 kts | 264° |
| 2026-04-30 18:18 | 48.36022 | 11.78330 | 1465 ft | 29 kts | 264° |
| 2026-04-30 18:19 | 48.35994 | 11.77995 | 1459 ft | 34 kts | 263° |
| 2026-04-30 18:19 | 48.35965 | 11.77625 | 1460 ft | 36 kts | 263° |
| 2026-04-30 18:19 | 48.35938 | 11.77269 | 1466 ft | 29 kts | 264° |
| 2026-04-30 18:19 | 48.35969 | 11.77025 | 1469 ft | 22 kts | 326° |
| 2026-04-30 18:20 | 48.36103 | 11.76963 | 1469 ft | 17 kts | 355° |
| 2026-04-30 18:20 | 48.36185 | 11.76948 | 1469 ft | 5 kts | 346° |
| 2026-04-30 18:20 | 48.36188 | 11.76947 | 1469 ft | 0 kts | 346° |
| 2026-04-30 18:20 | 48.36189 | 11.76947 | 1469 ft | 0 kts | 346° |
| 2026-04-30 18:21 | 48.36191 | 11.76946 | 1469 ft | 2 kts | 345° |
| 2026-04-30 18:21 | 48.36237 | 11.76947 | 1468 ft | 10 kts | 14° |
| 2026-04-30 18:22 | 48.36299 | 11.77048 | 1466 ft | 14 kts | 81° |
| 2026-04-30 18:22 | 48.36334 | 11.77504 | 1463 ft | 75 kts | 84° |
| 2026-04-30 18:22 | 48.36423 | 11.78661 | 1458 ft | 142 kts | 84° |
| 2026-04-30 18:23 | 48.36551 | 11.80347 | 1707 ft | 174 kts | 85° |
| 2026-04-30 18:23 | 48.36671 | 11.82117 | 2538 ft | 172 kts | 84° |
| 2026-04-30 18:23 | 48.36797 | 11.83838 | 3503 ft | 168 kts | 84° |
| 2026-04-30 18:23 | 48.37022 | 11.85631 | 4032 ft | 188 kts | 70° |
| 2026-04-30 18:24 | 48.39302 | 11.88118 | 5195 ft | 241 kts | 9° |
| 2026-04-30 18:24 | 48.40994 | 11.87594 | 5776 ft | 270 kts | 334° |
| 2026-04-30 18:24 | 48.42466 | 11.85723 | 6588 ft | 282 kts | 317° |
| 2026-04-30 18:25 | 48.43872 | 11.83727 | 7491 ft | 283 kts | 329° |
| 2026-04-30 18:25 | 48.47374 | 11.81122 | 9388 ft | 284 kts | 340° |
| 2026-04-30 18:25 | 48.49155 | 11.79896 | 10281 ft | 287 kts | 339° |
| 2026-04-30 18:26 | 48.52859 | 11.77169 | 11570 ft | 313 kts | 337° |
| 2026-04-30 18:26 | 48.54841 | 11.75649 | 12038 ft | 329 kts | 337° |
| 2026-04-30 18:26 | 48.56897 | 11.74044 | 12788 ft | 336 kts | 336° |
| 2026-04-30 18:27 | 48.61025 | 11.70798 | 14404 ft | 341 kts | 337° |
| 2026-04-30 18:27 | 48.63124 | 11.69130 | 15164 ft | 344 kts | 337° |
| 2026-04-30 18:28 | 48.67380 | 11.65745 | 16635 ft | 348 kts | 338° |
| 2026-04-30 18:28 | 48.69514 | 11.64043 | 17388 ft | 350 kts | 338° |
| 2026-04-30 18:28 | 48.73854 | 11.60655 | 18618 ft | 357 kts | 344° |
| 2026-04-30 18:29 | 48.76245 | 11.59839 | 19209 ft | 352 kts | 358° |
| 2026-04-30 18:29 | 48.83605 | 11.58884 | 21175 ft | 359 kts | 0° |
| 2026-04-30 18:30 | 48.88621 | 11.58146 | 22333 ft | 366 kts | 360° |
| 2026-04-30 18:30 | 48.93695 | 11.57342 | 23441 ft | 372 kts | 360° |
| 2026-04-30 18:31 | 48.96274 | 11.56922 | 23951 ft | 376 kts | 360° |
| 2026-04-30 18:31 | 49.01494 | 11.56064 | 24946 ft | 381 kts | 359° |
| 2026-04-30 18:32 | 49.06771 | 11.55183 | 25942 ft | 386 kts | 360° |
| 2026-04-30 18:32 | 49.09467 | 11.54733 | 26395 ft | 388 kts | 360° |
| 2026-04-30 18:32 | 49.14820 | 11.53838 | 27306 ft | 393 kts | 360° |
| 2026-04-30 18:33 | 49.17554 | 11.53377 | 27742 ft | 396 kts | 360° |
| 2026-04-30 18:33 | 49.23031 | 11.52455 | 28591 ft | 400 kts | 360° |
| 2026-04-30 18:33 | 49.25812 | 11.51986 | 29009 ft | 402 kts | 0° |
| 2026-04-30 18:34 | 49.28600 | 11.51516 | 29393 ft | 404 kts | 360° |
| 2026-04-30 18:34 | 49.34184 | 11.50570 | 30203 ft | 407 kts | 360° |
| 2026-04-30 18:34 | 49.37019 | 11.50089 | 30591 ft | 409 kts | 0° |
| 2026-04-30 18:35 | 49.39839 | 11.49610 | 31098 ft | 407 kts | 0° |
| 2026-04-30 18:35 | 49.42622 | 11.49135 | 31579 ft | 406 kts | 360° |
| 2026-04-30 18:35 | 49.45400 | 11.48662 | 32052 ft | 404 kts | 360° |
| 2026-04-30 18:36 | 49.50946 | 11.47715 | 33011 ft | 400 kts | 360° |
| 2026-04-30 18:36 | 49.53705 | 11.47244 | 33469 ft | 399 kts | 360° |
| 2026-04-30 18:36 | 49.59209 | 11.46304 | 34320 ft | 396 kts | 360° |
| 2026-04-30 18:37 | 49.61907 | 11.45841 | 34731 ft | 395 kts | 360° |
| 2026-04-30 18:37 | 49.64634 | 11.45375 | 35048 ft | 394 kts | 359° |
| 2026-04-30 18:37 | 49.67362 | 11.44909 | 35308 ft | 395 kts | 359° |
| 2026-04-30 18:37 | 49.70116 | 11.44437 | 35499 ft | 398 kts | 359° |
| 2026-04-30 18:38 | 49.72832 | 11.43971 | 35726 ft | 399 kts | 359° |
| 2026-04-30 18:38 | 49.75581 | 11.43497 | 35962 ft | 399 kts | 359° |
| 2026-04-30 18:38 | 49.78357 | 11.43018 | 36161 ft | 401 kts | 359° |
| 2026-04-30 18:38 | 49.81100 | 11.42544 | 36320 ft | 402 kts | 359° |
| 2026-04-30 18:39 | 49.83892 | 11.42061 | 36343 ft | 403 kts | 359° |
| 2026-04-30 18:39 | 49.89454 | 11.41098 | 36354 ft | 403 kts | 359° |
| 2026-04-30 18:40 | 49.95009 | 11.40133 | 36356 ft | 404 kts | 359° |
| 2026-04-30 18:40 | 50.00588 | 11.39160 | 36364 ft | 404 kts | 359° |
| 2026-04-30 18:41 | 50.06171 | 11.38187 | 36365 ft | 404 kts | 359° |
| 2026-04-30 18:41 | 50.11739 | 11.37213 | 36369 ft | 405 kts | 359° |
| 2026-04-30 18:42 | 50.17337 | 11.36233 | 36369 ft | 405 kts | 359° |
| 2026-04-30 18:42 | 50.25723 | 11.34757 | 36368 ft | 405 kts | 358° |
| 2026-04-30 18:45 | 50.56487 | 11.29251 | 36375 ft | 406 kts | 358° |
| 2026-04-30 18:46 | 50.62101 | 11.28249 | 36382 ft | 406 kts | 358° |
| 2026-04-30 18:46 | 50.67683 | 11.27248 | 36383 ft | 407 kts | 358° |
| 2026-04-30 18:47 | 50.73329 | 11.26234 | 36385 ft | 407 kts | 358° |
| 2026-04-30 18:47 | 50.78941 | 11.25224 | 36387 ft | 407 kts | 358° |
| 2026-04-30 18:48 | 50.84535 | 11.24215 | 36389 ft | 407 kts | 358° |
| 2026-04-30 18:48 | 50.90176 | 11.23195 | 36388 ft | 408 kts | 358° |
| 2026-04-30 18:49 | 50.95798 | 11.22177 | 36393 ft | 408 kts | 357° |
| 2026-04-30 18:49 | 51.01460 | 11.21147 | 36396 ft | 409 kts | 357° |
| 2026-04-30 18:50 | 51.07096 | 11.20118 | 36395 ft | 408 kts | 357° |
| 2026-04-30 18:50 | 51.12698 | 11.19095 | 36398 ft | 409 kts | 357° |
| 2026-04-30 18:51 | 51.18359 | 11.18063 | 36395 ft | 409 kts | 357° |
| 2026-04-30 18:51 | 51.23996 | 11.17030 | 36394 ft | 409 kts | 357° |
| 2026-04-30 18:52 | 51.29659 | 11.15989 | 36393 ft | 410 kts | 357° |
| 2026-04-30 18:52 | 51.35296 | 11.14949 | 36394 ft | 410 kts | 357° |
| 2026-04-30 18:53 | 51.40980 | 11.13897 | 36394 ft | 410 kts | 357° |
| 2026-04-30 18:53 | 51.46641 | 11.12848 | 36397 ft | 411 kts | 357° |
| 2026-04-30 18:54 | 51.52305 | 11.11796 | 36403 ft | 411 kts | 356° |
| 2026-04-30 18:54 | 51.57977 | 11.10740 | 36411 ft | 411 kts | 356° |
| 2026-04-30 18:55 | 51.63626 | 11.09686 | 36414 ft | 411 kts | 356° |
| 2026-04-30 18:55 | 51.72125 | 11.08094 | 36410 ft | 411 kts | 356° |
| 2026-04-30 18:56 | 51.80643 | 11.06492 | 36409 ft | 412 kts | 356° |
| 2026-04-30 18:57 | 51.89134 | 11.04856 | 36700 ft | 413 kts | 355° |
| 2026-04-30 18:57 | 51.91985 | 11.04250 | 36500 ft | 412 kts | 355° |
| 2026-04-30 18:57 | 51.94838 | 11.03636 | 36437 ft | 413 kts | 355° |
| 2026-04-30 18:58 | 52.03366 | 11.01807 | 36410 ft | 414 kts | 355° |
| 2026-04-30 18:59 | 52.11930 | 10.99969 | 35572 ft | 415 kts | 355° |
| 2026-04-30 19:00 | 52.20538 | 10.98123 | 34126 ft | 419 kts | 355° |
| 2026-04-30 19:00 | 52.23399 | 10.97507 | 33684 ft | 421 kts | 355° |
| 2026-04-30 19:00 | 52.29210 | 10.96253 | 32789 ft | 424 kts | 355° |
| 2026-04-30 19:01 | 52.35061 | 10.94986 | 31896 ft | 427 kts | 355° |
| 2026-04-30 19:01 | 52.37976 | 10.94352 | 31454 ft | 427 kts | 355° |
| 2026-04-30 19:02 | 52.43866 | 10.93073 | 30566 ft | 429 kts | 355° |
| 2026-04-30 19:02 | 52.49881 | 10.91765 | 29645 ft | 441 kts | 355° |
| 2026-04-30 19:03 | 52.55933 | 10.90442 | 28731 ft | 436 kts | 355° |
| 2026-04-30 19:03 | 52.61826 | 10.89146 | 27261 ft | 427 kts | 355° |
| 2026-04-30 19:04 | 52.67651 | 10.87865 | 25770 ft | 418 kts | 356° |
| 2026-04-30 19:04 | 52.73310 | 10.86616 | 24381 ft | 408 kts | 356° |
| 2026-04-30 19:05 | 52.78850 | 10.85394 | 22988 ft | 400 kts | 356° |
| 2026-04-30 19:05 | 52.84297 | 10.84197 | 21603 ft | 393 kts | 356° |
| 2026-04-30 19:06 | 52.89674 | 10.83106 | 20253 ft | 387 kts | 357° |
| 2026-04-30 19:06 | 52.92338 | 10.82569 | 19584 ft | 385 kts | 357° |
| 2026-04-30 19:06 | 52.97577 | 10.81510 | 18302 ft | 379 kts | 357° |
| 2026-04-30 19:07 | 53.02754 | 10.80456 | 17063 ft | 374 kts | 357° |
| 2026-04-30 19:07 | 53.05315 | 10.79933 | 16722 ft | 372 kts | 357° |
| 2026-04-30 19:08 | 53.10458 | 10.78882 | 16222 ft | 373 kts | 357° |
| 2026-04-30 19:08 | 53.15598 | 10.77830 | 15727 ft | 371 kts | 358° |
| 2026-04-30 19:08 | 53.18146 | 10.77432 | 15475 ft | 362 kts | 2° |
| 2026-04-30 19:09 | 53.22987 | 10.77363 | 14985 ft | 340 kts | 5° |
| 2026-04-30 19:09 | 53.25335 | 10.77368 | 14730 ft | 330 kts | 5° |
| 2026-04-30 19:09 | 53.27592 | 10.77368 | 14482 ft | 322 kts | 5° |
| 2026-04-30 19:10 | 53.31960 | 10.77346 | 13976 ft | 306 kts | 5° |
| 2026-04-30 19:10 | 53.36097 | 10.77294 | 13487 ft | 292 kts | 5° |
| 2026-04-30 19:11 | 53.38109 | 10.77269 | 13241 ft | 287 kts | 5° |
| 2026-04-30 19:11 | 53.42081 | 10.77229 | 12748 ft | 285 kts | 5° |
| 2026-04-30 19:11 | 53.44068 | 10.77212 | 12506 ft | 284 kts | 5° |
| 2026-04-30 19:12 | 53.46008 | 10.77199 | 12261 ft | 283 kts | 5° |
| 2026-04-30 19:12 | 53.47991 | 10.77188 | 12010 ft | 282 kts | 5° |
| 2026-04-30 19:12 | 53.49941 | 10.77181 | 11760 ft | 281 kts | 5° |
| 2026-04-30 19:13 | 53.53709 | 10.75527 | 11419 ft | 291 kts | 337° |
| 2026-04-30 19:13 | 53.57241 | 10.72121 | 11414 ft | 293 kts | 335° |
| 2026-04-30 19:13 | 53.58993 | 10.70391 | 11407 ft | 287 kts | 334° |
| 2026-04-30 19:14 | 53.60680 | 10.68715 | 11251 ft | 277 kts | 334° |
| 2026-04-30 19:14 | 53.62323 | 10.67082 | 10786 ft | 281 kts | 334° |
| 2026-04-30 19:14 | 53.64039 | 10.65391 | 10265 ft | 285 kts | 335° |
| 2026-04-30 19:14 | 53.65747 | 10.63714 | 9869 ft | 284 kts | 335° |
| 2026-04-30 19:15 | 53.67426 | 10.62072 | 9501 ft | 282 kts | 335° |
| 2026-04-30 19:15 | 53.70653 | 10.58366 | 8750 ft | 288 kts | 312° |
| 2026-04-30 19:15 | 53.71525 | 10.55335 | 8463 ft | 290 kts | 284° |
| 2026-04-30 19:16 | 53.71502 | 10.51920 | 8458 ft | 295 kts | 261° |
| 2026-04-30 19:16 | 53.71023 | 10.48558 | 8452 ft | 297 kts | 256° |
| 2026-04-30 19:16 | 53.69877 | 10.41868 | 8433 ft | 298 kts | 255° |
| 2026-04-30 19:17 | 53.69298 | 10.38543 | 8439 ft | 298 kts | 255° |
| 2026-04-30 19:17 | 53.68139 | 10.31874 | 8342 ft | 295 kts | 254° |
| 2026-04-30 19:17 | 53.67565 | 10.28538 | 7869 ft | 296 kts | 254° |
| 2026-04-30 19:18 | 53.66608 | 10.23015 | 7222 ft | 294 kts | 250° |
| 2026-04-30 19:18 | 53.65248 | 10.19119 | 6756 ft | 289 kts | 231° |
| 2026-04-30 19:18 | 53.64010 | 10.16465 | 6412 ft | 287 kts | 229° |
| 2026-04-30 19:19 | 53.62767 | 10.13892 | 6068 ft | 285 kts | 229° |
| 2026-04-30 19:19 | 53.61515 | 10.11328 | 5732 ft | 283 kts | 229° |
| 2026-04-30 19:19 | 53.59059 | 10.06329 | 5330 ft | 268 kts | 229° |
| 2026-04-30 19:20 | 53.57902 | 10.03970 | 5174 ft | 260 kts | 229° |
| 2026-04-30 19:20 | 53.56770 | 10.01658 | 5078 ft | 250 kts | 229° |
| 2026-04-30 19:20 | 53.54597 | 9.97201 | 5068 ft | 247 kts | 229° |
| 2026-04-30 19:21 | 53.53513 | 9.94966 | 5066 ft | 247 kts | 229° |
| 2026-04-30 19:21 | 53.51340 | 9.90490 | 5061 ft | 247 kts | 229° |
| 2026-04-30 19:22 | 53.49172 | 9.86032 | 5061 ft | 247 kts | 229° |
| 2026-04-30 19:22 | 53.45918 | 9.79350 | 5063 ft | 247 kts | 229° |
| 2026-04-30 19:23 | 53.42661 | 9.72661 | 5087 ft | 247 kts | 229° |
| 2026-04-30 19:24 | 53.40509 | 9.68207 | 5070 ft | 247 kts | 229° |
| 2026-04-30 19:24 | 53.39449 | 9.66012 | 5073 ft | 238 kts | 229° |
| 2026-04-30 19:24 | 53.37837 | 9.61481 | 5055 ft | 226 kts | 266° |
| 2026-04-30 19:25 | 53.40550 | 9.56705 | 5015 ft | 204 kts | 14° |
| 2026-04-30 19:26 | 53.42970 | 9.58892 | 4987 ft | 199 kts | 45° |
| 2026-04-30 19:26 | 53.44898 | 9.62212 | 4970 ft | 199 kts | 50° |
| 2026-04-30 19:26 | 53.45816 | 9.63925 | 4897 ft | 199 kts | 51° |
| 2026-04-30 19:27 | 53.47621 | 9.67465 | 4351 ft | 199 kts | 52° |
| 2026-04-30 19:27 | 53.49379 | 9.71029 | 3820 ft | 198 kts | 53° |
| 2026-04-30 19:28 | 53.50253 | 9.72818 | 3558 ft | 198 kts | 52° |
| 2026-04-30 19:28 | 53.51992 | 9.76375 | 3039 ft | 197 kts | 52° |
| 2026-04-30 19:29 | 53.53723 | 9.79919 | 2505 ft | 195 kts | 52° |
| 2026-04-30 19:29 | 53.54553 | 9.81612 | 2344 ft | 181 kts | 52° |
| 2026-04-30 19:30 | 53.56899 | 9.86377 | 1608 ft | 174 kts | 52° |
| 2026-04-30 19:30 | 53.58414 | 9.89451 | 1153 ft | 163 kts | 52° |
| 2026-04-30 19:31 | 53.59751 | 9.92161 | 722 ft | 137 kts | 51° |
| 2026-04-30 19:31 | 53.60334 | 9.93343 | 519 ft | 126 kts | 51° |
| 2026-04-30 19:31 | 53.61428 | 9.95583 | 203 ft | 124 kts | 50° |
| 2026-04-30 19:32 | 53.61983 | 9.96696 | 56 ft | 123 kts | 51° |
| 2026-04-30 19:32 | 53.62490 | 9.97737 | 29 ft | 97 kts | 52° |
| 2026-04-30 19:32 | 53.62824 | 9.98393 | 38 ft | 55 kts | 49° |
| 2026-04-30 19:32 | 53.63004 | 9.98791 | 36 ft | 38 kts | 52° |
| 2026-04-30 19:33 | 53.63089 | 9.99108 | 35 ft | 19 kts | 91° |
| 2026-04-30 19:33 | 53.63080 | 9.99251 | 33 ft | 7 kts | 86° |
| 2026-04-30 19:33 | 53.63091 | 9.99350 | 32 ft | 6 kts | 75° |
| 2026-04-30 19:33 | 53.63094 | 9.99369 | 32 ft | 1 kts | 75° |
| 2026-04-30 19:34 | 53.63099 | 9.99395 | 32 ft | 3 kts | 75° |
| 2026-04-30 19:34 | 53.63099 | 9.99399 | 32 ft | 0 kts | 75° |
| 2026-04-30 19:34 | 53.63101 | 9.99408 | 32 ft | 2 kts | 70° |
| 2026-04-30 19:35 | 53.63119 | 9.99466 | 32 ft | 8 kts | 60° |
| 2026-04-30 19:35 | 53.63165 | 9.99571 | 32 ft | 13 kts | 48° |
| 2026-04-30 19:35 | 53.63222 | 9.99675 | 32 ft | 6 kts | 47° |
| 2026-04-30 19:35 | 53.63265 | 9.99746 | 30 ft | 10 kts | 44° |
| 2026-04-30 19:36 | 53.63315 | 9.99840 | 31 ft | 11 kts | 51° |
| 2026-04-30 19:36 | 53.63370 | 9.99958 | 33 ft | 14 kts | 51° |
| 2026-04-30 19:36 | 53.63419 | 10.00211 | 41 ft | 12 kts | 162° |
| 2026-04-30 19:37 | 53.63334 | 10.00252 | 40 ft | 12 kts | 122° |
| 2026-04-30 19:37 | 53.63333 | 10.00352 | 42 ft | 0 kts | 86° |